Time;durP1;ratioP1;P1;durP2;ratioP2;P2;SDS_P1;SDS_P2;PMS_P1;PMS_P2;Temp;Humidity;BMP_temperature;BMP_pressure;BME280_temperature;BME280_humidity;BME280_pressure;Samples;Min_cycle;Max_cycle;Signal;HPM_P1;HPM_P2
2023/07/26 00:02:04;;;;;;;20.23;6.00;;;;;;;24.17;67.50;99209.91;126978;1086;104229;-78
2023/07/26 00:04:33;;;;;;;22.00;5.80;;;;;;;24.16;67.66;99203.66;126835;1086;101950;-78
2023/07/26 00:07:01;;;;;;;18.03;5.87;;;;;;;24.20;68.23;99220.50;126793;1085;104178;-76
2023/07/26 00:09:30;;;;;;;13.90;5.80;;;;;;;24.27;68.07;99213.94;126607;1086;104169;-76
2023/07/26 00:11:58;;;;;;;22.57;6.47;;;;;;;24.32;67.52;99206.56;126629;1086;102150;-77
2023/07/26 00:14:27;;;;;;;19.93;6.57;;;;;;;24.33;68.17;99205.64;126659;1085;102169;-78
2023/07/26 00:16:55;;;;;;;18.67;6.10;;;;;;;24.34;68.28;99202.04;126697;1086;102208;-77
2023/07/26 00:19:24;;;;;;;20.27;6.27;;;;;;;24.34;67.93;99207.40;126426;1086;104168;-77
2023/07/26 00:21:52;;;;;;;19.77;5.50;;;;;;;24.35;68.05;99208.27;126778;1086;104242;-77
2023/07/26 00:24:21;;;;;;;17.43;5.37;;;;;;;24.36;68.12;99205.52;126638;1086;104162;-77
2023/07/26 00:26:49;;;;;;;19.33;5.17;;;;;;;24.39;68.32;99199.16;126630;1086;104155;-77
2023/07/26 00:29:18;;;;;;;15.07;5.50;;;;;;;24.39;68.05;99191.13;126606;1086;104162;-77
2023/07/26 00:31:46;;;;;;;15.10;5.77;;;;;;;24.34;68.31;99191.31;126688;1086;102194;-77
2023/07/26 00:34:15;;;;;;;16.43;5.10;;;;;;;24.27;68.49;99195.17;126871;1086;102459;-77
2023/07/26 00:36:44;;;;;;;20.83;5.20;;;;;;;24.23;68.40;99186.40;126776;1087;102504;-77
2023/07/26 00:39:13;;;;;;;14.40;5.30;;;;;;;24.18;68.60;99183.05;126830;1086;101999;-77
2023/07/26 00:41:42;;;;;;;19.40;5.10;;;;;;;24.17;68.71;99169.71;127665;1086;104213;-78
2023/07/26 00:44:11;;;;;;;15.00;5.60;;;;;;;24.15;68.61;99168.88;127650;1086;104173;-77
2023/07/26 00:46:39;;;;;;;15.17;4.80;;;;;;;24.14;68.77;99173.38;127451;1086;102169;-77
2023/07/26 00:49:09;;;;;;;15.10;5.23;;;;;;;24.16;68.61;99174.17;127282;1086;101823;-76
2023/07/26 00:51:38;;;;;;;18.37;5.43;;;;;;;24.19;68.50;99176.73;126700;1086;101816;-77
2023/07/26 00:54:08;;;;;;;18.57;5.30;;;;;;;24.17;68.77;99167.03;126717;1086;104177;-76
2023/07/26 00:56:37;;;;;;;20.37;5.90;;;;;;;24.13;68.99;99174.30;126739;1086;102300;-77
2023/07/26 00:59:06;;;;;;;14.80;5.43;;;;;;;24.09;69.14;99174.49;126668;1086;104682;-77
2023/07/26 01:01:34;;;;;;;19.43;5.90;;;;;;;24.08;69.14;99170.09;126650;1086;102303;-78
2023/07/26 01:04:03;;;;;;;16.07;5.37;;;;;;;24.05;69.27;99163.90;126603;1086;104258;-76
2023/07/26 01:06:41;;;;;;;21.20;5.70;;;;;;;24.07;69.27;99160.30;126593;1086;104152;-76
2023/07/26 01:09:18;;;;;;;13.90;5.30;;;;;;;24.10;69.03;99177.11;126256;1086;104242;-76
2023/07/26 01:11:54;;;;;;;15.03;5.93;;;;;;;24.08;69.18;99173.62;126363;1086;104251;-77
2023/07/26 01:14:37;;;;;;;19.73;5.80;;;;;;;24.07;69.10;99171.02;126673;1086;102488;-77
2023/07/26 01:17:09;;;;;;;24.65;6.30;;;;;;;24.04;69.15;99162.17;126287;1086;104177;-77
2023/07/26 01:19:38;;;;;;;19.20;6.23;;;;;;;24.03;69.26;99167.59;126609;1085;102273;-77
2023/07/26 01:22:07;;;;;;;20.20;6.30;;;;;;;24.03;69.60;99187.21;126695;1086;102290;-77
2023/07/26 01:24:35;;;;;;;13.30;5.60;;;;;;;24.05;69.72;99182.66;126645;1086;104155;-77
2023/07/26 01:27:06;;;;;;;17.23;5.83;;;;;;;24.10;69.78;99179.78;126696;1086;104328;-78
2023/07/26 01:29:35;;;;;;;22.80;6.23;;;;;;;24.15;69.58;99172.45;126315;1086;104156;-78
2023/07/26 01:32:06;;;;;;;18.33;6.43;;;;;;;24.17;69.60;99170.58;126480;1086;101920;-78
2023/07/26 01:34:35;;;;;;;16.67;6.33;;;;;;;24.19;69.38;99162.47;126681;1086;104252;-78
2023/07/26 01:37:05;;;;;;;17.30;6.00;;;;;;;24.20;69.87;99164.22;126666;1085;104206;-78
2023/07/26 01:39:34;;;;;;;18.85;6.00;;;;;;;24.22;69.71;99183.78;126617;1085;104200;-77
2023/07/26 01:42:03;;;;;;;17.60;6.40;;;;;;;24.19;69.51;99182.09;126503;1086;104246;-77
2023/07/26 01:44:37;;;;;;;15.43;6.33;;;;;;;24.13;69.58;99185.02;126636;1086;102392;-78
2023/07/26 01:47:06;;;;;;;21.62;6.83;;;;;;;24.17;69.82;99191.15;126742;1086;101842;-78
2023/07/26 01:49:34;;;;;;;21.20;7.43;;;;;;;24.20;69.74;99182.98;126623;1086;104165;-77
2023/07/26 01:52:03;;;;;;;18.17;6.03;;;;;;;24.22;69.78;99176.61;126694;1086;102406;-77
2023/07/26 01:54:32;;;;;;;17.93;6.83;;;;;;;24.21;69.89;99169.52;126631;1086;104394;-77
2023/07/26 01:57:00;;;;;;;22.53;6.77;;;;;;;24.21;69.65;99166.84;126754;1086;104290;-78
2023/07/26 01:59:29;;;;;;;20.60;6.80;;;;;;;24.16;69.82;99163.45;126684;1086;104299;-80
2023/07/26 02:01:57;;;;;;;15.77;6.77;;;;;;;24.14;69.82;99161.80;126391;1086;103011;-78
2023/07/26 02:04:26;;;;;;;17.60;7.03;;;;;;;24.14;69.87;99167.16;126685;1086;102587;-79
2023/07/26 02:06:55;;;;;;;21.70;7.07;;;;;;;24.15;69.78;99171.56;126655;1086;101918;-79
2023/07/26 02:09:23;;;;;;;20.03;7.00;;;;;;;24.16;70.17;99165.28;126429;1086;102071;-77
2023/07/26 02:11:52;;;;;;;19.03;7.00;;;;;;;24.17;69.88;99172.39;126459;1086;104162;-76
2023/07/26 02:14:21;;;;;;;16.40;6.73;;;;;;;24.18;69.92;99174.11;126488;1086;104155;-77
2023/07/26 02:16:49;;;;;;;19.63;7.50;;;;;;;24.18;70.07;99177.69;126807;1086;104325;-78
2023/07/26 02:19:18;;;;;;;19.10;7.50;;;;;;;24.16;70.10;99176.86;126385;1086;102394;-78
2023/07/26 02:21:47;;;;;;;19.53;7.03;;;;;;;24.17;70.44;99167.89;126736;1086;102208;-78
2023/07/26 02:24:16;;;;;;;16.23;7.57;;;;;;;24.20;70.49;99174.94;126641;1086;104606;-77
2023/07/26 02:26:44;;;;;;;18.20;7.00;;;;;;;24.20;70.14;99177.63;126746;1086;101813;-78
2023/07/26 02:29:13;;;;;;;21.33;7.37;;;;;;;24.17;70.29;99180.43;126345;1087;101916;-79
2023/07/26 02:31:41;;;;;;;23.73;7.57;;;;;;;24.13;70.32;99176.13;126466;1085;101928;-78
2023/07/26 02:34:10;;;;;;;19.53;7.20;;;;;;;24.11;70.45;99165.47;126487;1086;104191;-78
2023/07/26 02:36:42;;;;;;;17.13;7.20;;;;;;;24.09;70.48;99155.73;126454;1086;102128;-79
2023/07/26 02:39:11;;;;;;;22.07;7.40;;;;;;;24.05;70.65;99157.68;126916;1086;102096;-79
2023/07/26 02:41:39;;;;;;;19.20;7.50;;;;;;;24.02;70.49;99153.30;126803;1086;104327;-79
2023/07/26 02:44:08;;;;;;;19.70;7.67;;;;;;;24.00;70.51;99155.19;126816;1086;104206;-77
2023/07/26 02:46:36;;;;;;;21.10;7.13;;;;;;;23.99;70.64;99164.15;126826;1086;104046;-78
2023/07/26 02:49:05;;;;;;;18.60;7.25;;;;;;;23.96;70.64;99164.27;126506;1086;104156;-79
2023/07/26 02:51:33;;;;;;;18.13;7.30;;;;;;;23.94;70.91;99150.08;126862;1086;104267;-78
2023/07/26 02:54:02;;;;;;;18.00;7.77;;;;;;;23.97;70.86;99146.41;126745;1086;102591;-78
2023/07/26 02:56:33;;;;;;;22.00;8.63;;;;;;;23.95;70.92;99137.55;126867;1086;104197;-79
2023/07/26 02:59:01;;;;;;;16.40;7.93;;;;;;;23.90;70.79;99143.09;126926;1086;102125;-78
2023/07/26 03:01:30;;;;;;;22.10;8.13;;;;;;;23.90;71.29;99139.55;126666;1086;102237;-79
2023/07/26 03:03:58;;;;;;;21.07;8.20;;;;;;;23.87;71.23;99124.47;126881;1086;104207;-77
2023/07/26 03:06:27;;;;;;;21.83;8.40;;;;;;;23.84;71.47;99128.16;126669;1086;104181;-80
2023/07/26 03:08:55;;;;;;;25.47;8.87;;;;;;;23.83;71.51;99123.70;126700;1086;104018;-79
2023/07/26 03:11:24;;;;;;;23.23;8.40;;;;;;;23.84;71.49;99113.88;126926;1086;104162;-80
2023/07/26 03:13:52;;;;;;;19.50;8.23;;;;;;;23.86;71.44;99107.53;126910;1086;104162;-80
2023/07/26 03:16:22;;;;;;;18.80;8.70;;;;;;;23.86;71.51;99114.70;126841;1086;104236;-78
2023/07/26 03:18:50;;;;;;;19.37;8.27;;;;;;;23.86;71.58;99114.70;126786;1086;104178;-78
2023/07/26 03:21:19;;;;;;;19.33;8.73;;;;;;;23.86;71.79;99103.99;126523;1086;102016;-77
2023/07/26 03:23:47;;;;;;;20.50;8.50;;;;;;;23.86;71.93;99109.34;126891;1086;104181;-78
2023/07/26 03:26:16;;;;;;;19.67;7.67;;;;;;;23.91;71.89;99125.23;126842;1085;104258;-78
2023/07/26 03:28:45;;;;;;;19.87;8.20;;;;;;;23.94;71.92;99125.97;126852;1086;104191;-78
2023/07/26 03:31:13;;;;;;;20.00;8.33;;;;;;;23.97;71.83;99111.59;126924;1086;104219;-79
2023/07/26 03:33:42;;;;;;;22.93;8.83;;;;;;;23.99;72.12;99107.89;126647;1086;104193;-78
2023/07/26 03:36:10;;;;;;;20.60;8.07;;;;;;;24.05;72.25;99117.48;126747;1086;102417;-79
2023/07/26 03:38:39;;;;;;;19.67;8.40;;;;;;;24.09;72.55;99111.08;126717;1086;104146;-79
2023/07/26 03:41:08;;;;;;;23.70;8.17;;;;;;;24.15;72.25;99091.17;126900;1086;101861;-78
2023/07/26 03:43:38;;;;;;;18.47;8.47;;;;;;;24.19;72.67;99084.75;126645;1086;102119;-79
2023/07/26 03:46:07;;;;;;;20.03;8.13;;;;;;;24.21;72.26;99090.91;126804;1086;104167;-77
2023/07/26 03:48:39;;;;;;;16.97;7.73;;;;;;;24.25;72.84;99087.17;126751;1086;101898;-78
2023/07/26 03:51:07;;;;;;;18.47;8.00;;;;;;;24.32;72.83;99075.23;126596;1086;104299;-76
2023/07/26 03:53:36;;;;;;;15.93;7.83;;;;;;;24.37;73.12;99083.06;126776;1086;104222;-78
2023/07/26 03:56:05;;;;;;;16.67;7.70;;;;;;;24.41;73.17;99074.83;127043;1086;104267;-86
2023/07/26 03:58:34;;;;;;;19.53;7.77;;;;;;;24.46;73.06;99097.89;127114;1086;102860;-84
2023/07/26 04:01:02;;;;;;;21.50;8.03;;;;;;;24.49;72.94;99077.17;127130;1086;101796;-84
2023/07/26 04:03:31;;;;;;;18.33;7.60;;;;;;;24.55;72.88;99082.27;127365;1086;102781;-87
2023/07/26 04:06:00;;;;;;;18.27;7.77;;;;;;;24.62;73.18;99092.75;127371;1086;104198;-87
2023/07/26 04:08:29;;;;;;;17.80;7.47;;;;;;;24.70;73.16;99080.75;127316;1086;102041;-86
2023/07/26 04:11:01;;;;;;;16.87;7.53;;;;;;;24.75;73.33;99075.18;127135;1086;104165;-86
2023/07/26 04:13:30;;;;;;;17.45;7.40;;;;;;;24.83;72.99;99085.56;127244;1086;104031;-81
2023/07/26 04:15:59;;;;;;;16.17;7.23;;;;;;;24.89;73.37;99112.97;126996;1086;101791;-82
2023/07/26 04:18:28;;;;;;;15.63;7.60;;;;;;;24.97;73.20;99088.48;127013;1086;104203;-81
2023/07/26 04:20:56;;;;;;;26.10;7.87;;;;;;;24.99;72.86;99091.95;127203;1086;104172;-81
2023/07/26 04:23:25;;;;;;;20.67;7.87;;;;;;;25.04;72.95;99081.00;127067;1086;104341;-80
2023/07/26 04:25:54;;;;;;;18.70;7.40;;;;;;;25.04;73.04;99073.84;126999;1086;104262;-79
2023/07/26 04:28:22;;;;;;;16.93;8.17;;;;;;;25.04;73.55;99067.59;126884;1086;104165;-80
2023/07/26 04:30:52;;;;;;;16.27;7.63;;;;;;;25.07;73.11;99068.34;126938;1086;101789;-78
2023/07/26 04:33:20;;;;;;;17.93;7.70;;;;;;;25.05;73.53;99064.83;127000;1086;104220;-80
2023/07/26 04:35:51;;;;;;;19.63;7.60;;;;;;;25.08;73.18;99066.52;127040;1086;104321;-80
2023/07/26 04:38:20;;;;;;;17.17;7.70;;;;;;;25.12;73.19;99049.34;126978;1086;101905;-81
2023/07/26 04:40:48;;;;;;;18.30;7.57;;;;;;;25.05;73.08;99059.47;127027;1086;104105;-79
2023/07/26 04:43:19;;;;;;;16.33;7.37;;;;;;;25.12;73.26;99076.17;127146;1086;101949;-79
2023/07/26 04:45:48;;;;;;;20.77;7.73;;;;;;;25.21;73.41;99093.64;127218;1086;101870;-82
2023/07/26 04:48:17;;;;;;;17.13;7.70;;;;;;;25.32;73.67;99088.66;126805;1086;104242;-82
2023/07/26 04:50:47;;;;;;;18.97;7.70;;;;;;;25.37;73.65;99053.53;126700;1086;104229;-77
2023/07/26 04:53:16;;;;;;;19.13;8.30;;;;;;;25.31;73.84;99070.83;126779;1086;102197;-77
2023/07/26 04:55:46;;;;;;;20.77;7.80;;;;;;;25.27;73.47;99090.67;126641;1089;101808;-81
2023/07/26 04:58:14;;;;;;;18.70;7.53;;;;;;;25.22;73.85;99076.60;127967;1085;101816;-79
2023/07/26 05:00:43;;;;;;;18.17;7.80;;;;;;;25.16;73.79;99077.75;127514;1086;104149;-85
2023/07/26 05:03:12;;;;;;;18.87;7.57;;;;;;;25.12;74.02;99086.91;127470;1086;101768;-79
2023/07/26 05:05:41;;;;;;;17.80;7.60;;;;;;;25.06;74.16;99081.83;127755;1086;102162;-78
2023/07/26 05:08:10;;;;;;;15.50;7.30;;;;;;;25.05;74.56;99072.02;127925;1085;104319;-79
2023/07/26 05:10:41;;;;;;;20.90;8.00;;;;;;;25.07;74.34;99076.39;126490;1089;104191;-77
2023/07/26 05:13:09;;;;;;;18.80;8.20;;;;;;;25.09;74.76;99077.17;126709;1085;104300;-79
2023/07/26 05:15:38;;;;;;;20.60;8.10;;;;;;;25.11;74.56;99083.33;126843;1086;102302;-81
2023/07/26 05:18:07;;;;;;;19.37;8.63;;;;;;;25.17;75.02;99078.64;127353;1086;102339;-80
2023/07/26 05:20:37;;;;;;;20.43;8.23;;;;;;;25.22;75.04;99092.70;126778;1086;104228;-84
2023/07/26 05:23:06;;;;;;;16.27;8.00;;;;;;;25.27;74.92;99094.24;127426;1086;102290;-84
2023/07/26 05:25:42;;;;;;;19.73;8.13;;;;;;;25.35;75.17;99093.87;127776;1086;104293;-82
2023/07/26 05:28:12;;;;;;;17.97;8.17;;;;;;;25.41;75.49;99085.53;127387;1086;104244;-77
2023/07/26 05:31:04;;;;;;;18.77;8.40;;;;;;;25.46;75.55;99093.37;127177;1086;104331;-78
2023/07/26 05:33:35;;;;;;;19.23;8.60;;;;;;;25.55;75.19;99094.75;126745;1086;102038;-78
2023/07/26 05:36:11;;;;;;;18.97;8.73;;;;;;;25.61;75.22;99091.77;126923;1086;102989;-80
2023/07/26 05:38:46;;;;;;;18.00;8.20;;;;;;;25.67;75.71;99086.10;128146;1086;101899;-81
2023/07/26 05:41:16;;;;;;;18.47;8.90;;;;;;;25.73;75.85;99080.42;128678;1085;101836;-86
2023/07/26 05:43:45;;;;;;;17.87;8.47;;;;;;;25.75;76.01;99086.58;128592;1085;101703;-84
2023/07/26 05:46:14;;;;;;;19.43;9.07;;;;;;;25.76;75.59;99085.66;127327;1086;104191;-83
2023/07/26 05:48:51;;;;;;;20.63;8.63;;;;;;;25.81;75.64;99074.67;127437;1086;101872;-87
2023/07/26 05:51:23;;;;;;;21.10;8.83;;;;;;;25.81;75.56;99070.16;129201;1085;101657;-86
2023/07/26 05:54:01;;;;;;;19.87;9.13;;;;;;;25.80;75.76;99080.98;127647;1086;104194;-86
2023/07/26 05:56:37;;;;;;;17.90;8.70;;;;;;;25.78;75.99;99075.69;127373;1086;104234;-88
2023/07/26 05:59:09;;;;;;;20.07;8.33;;;;;;;25.83;76.07;99068.26;129174;1085;101568;-83
2023/07/26 06:01:49;;;;;;;19.27;8.80;;;;;;;25.84;75.86;99064.64;129216;1085;102107;-83
2023/07/26 06:04:24;;;;;;;19.70;8.97;;;;;;;25.87;76.33;99060.05;128363;1085;102257;-89
2023/07/26 06:06:59;;;;;;;18.57;8.67;;;;;;;25.90;75.72;99052.72;128334;1086;102809;-90
2023/07/26 06:09:29;;;;;;;17.23;8.20;;;;;;;25.94;75.90;99056.97;127468;1086;104191;-80
2023/07/26 06:12:03;;;;;;;21.63;9.30;;;;;;;25.98;75.87;99063.12;127233;1086;102283;-78
2023/07/26 06:14:37;;;;;;;21.00;9.03;;;;;;;26.01;76.25;99057.59;127464;1086;102408;-83
2023/07/26 06:17:08;;;;;;;20.13;9.23;;;;;;;26.03;76.03;99047.62;127198;1089;104351;-83
2023/07/26 06:19:55;;;;;;;18.83;8.70;;;;;;;26.06;75.95;99042.09;127836;1086;102698;-85
2023/07/26 06:22:36;;;;;;;20.77;8.90;;;;;;;26.13;75.80;99046.21;127777;1086;101691;-86
2023/07/26 06:25:14;;;;;;;20.43;9.43;;;;;;;26.21;76.04;99051.19;127557;1087;104226;-82
2023/07/26 06:27:57;;;;;;;19.73;8.97;;;;;;;26.27;76.03;99053.56;128406;1085;117855;-90
2023/07/26 06:30:51;;;;;;;23.73;9.77;;;;;;;26.27;75.96;99036.54;128260;1086;102007;-83
2023/07/26 06:33:39;;;;;;;20.60;9.50;;;;;;;26.38;76.17;99039.52;128216;1086;101635;-85
2023/07/26 06:36:11;;;;;;;21.77;9.53;;;;;;;26.48;76.53;99045.31;128136;1086;101768;-85
2023/07/26 06:38:45;;;;;;;19.50;9.13;;;;;;;26.63;76.28;99047.19;129306;1085;101116;-83
2023/07/26 06:41:15;;;;;;;18.80;8.50;;;;;;;26.78;76.38;99050.02;128288;1086;101902;-80
2023/07/26 06:43:48;;;;;;;21.97;9.10;;;;;;;26.89;76.16;99045.77;127237;1086;104334;-81
2023/07/26 06:46:39;;;;;;;;;;;;;;;;;;;;;
2023/07/26 06:49:34;;;;;;;22.77;9.07;;;;;;;27.12;76.56;99058.94;127836;1086;101910;-82
2023/07/26 06:52:17;;;;;;;18.67;8.60;;;;;;;27.24;76.47;99059.12;127850;1089;102300;-82
2023/07/26 06:54:51;;;;;;;21.23;8.47;;;;;;;27.33;75.78;99049.70;127613;1089;104317;-82
2023/07/26 06:57:27;;;;;;;20.13;8.63;;;;;;;27.41;75.58;99049.23;126977;1086;104408;-77
2023/07/26 07:00:47;;;;;;;21.00;8.57;;;;;;;27.50;75.50;99037.08;128569;1084;102039;-85
2023/07/26 07:03:15;;;;;;;;;;;;;;;27.71;75.24;99046.61;129030;1085;101484;-84
2023/07/26 07:05:45;;;;;;;18.57;8.30;;;;;;;27.91;74.92;99056.23;127760;1086;101864;-83
2023/07/26 07:08:15;;;;;;;20.43;8.97;;;;;;;28.11;74.80;99054.19;128355;1085;101798;-86
2023/07/26 07:10:49;;;;;;;20.13;8.53;;;;;;;28.25;74.32;99056.95;128321;1086;102021;-83
2023/07/26 07:13:37;;;;;;;20.77;9.63;;;;;;;28.29;73.44;99057.63;127406;1086;104177;-81
2023/07/26 07:16:32;;;;;;;19.33;8.63;;;;;;;28.40;73.36;99054.27;128411;1085;104190;-81
2023/07/26 07:19:02;;;;;;;16.83;8.07;;;;;;;28.69;73.64;99066.02;127707;1086;101691;-86
2023/07/26 07:21:44;;;;;;;21.40;8.60;;;;;;;28.82;72.46;99066.96;128138;1086;104156;-80
2023/07/26 07:24:18;;;;;;;20.73;8.60;;;;;;;28.89;71.92;99070.16;127544;1086;104226;-79
2023/07/26 07:27:06;;;;;;;15.37;8.13;;;;;;;28.95;71.74;99056.28;127744;1086;101769;-85
2023/07/26 07:29:45;;;;;;;22.30;8.03;;;;;;;29.19;71.88;99071.87;127976;1086;101945;-81
2023/07/26 07:32:14;;;;;;;18.23;8.43;;;;;;;29.43;71.19;99060.47;127144;1086;101990;-84
2023/07/26 07:34:53;;;;;;;15.50;8.10;;;;;;;29.50;70.92;99056.38;128890;1086;102257;-79
2023/07/26 07:37:26;;;;;;;16.23;7.17;;;;;;;29.71;70.71;99044.16;128807;1086;101795;-82
2023/07/26 07:40:00;;;;;;;19.43;8.37;;;;;;;29.79;70.22;99051.75;127337;1086;101911;-78
2023/07/26 07:42:49;;;;;;;15.63;7.60;;;;;;;29.93;69.82;99053.56;127342;1085;104240;-81
2023/07/26 07:45:21;;;;;;;19.93;7.70;;;;;;;30.13;69.17;99062.17;127382;1087;104244;-82
2023/07/26 07:47:54;;;;;;;18.63;7.60;;;;;;;30.22;68.65;99061.55;127835;1085;104187;-82
2023/07/26 07:50:40;;;;;;;16.57;6.90;;;;;;;30.19;67.42;99056.34;128104;1086;108357;-86
2023/07/26 07:54:01;;;;;;;17.93;7.63;;;;;;;30.18;67.38;99066.28;128226;1086;101587;-86
2023/07/26 07:57:17;;;;;;;17.27;7.47;;;;;;;30.36;67.31;99074.13;127837;1089;101974;-82
2023/07/26 08:00:26;;;;;;;14.40;6.97;;;;;;;30.45;66.96;99081.64;127936;1086;101618;-87
2023/07/26 08:03:17;;;;;;;19.00;8.07;;;;;;;30.32;65.51;99088.83;127526;1086;104181;-87
2023/07/26 08:06:13;;;;;;;18.00;7.70;;;;;;;30.28;65.69;99099.00;128076;1086;101707;-87
2023/07/26 08:09:10;;;;;;;18.73;7.80;;;;;;;30.24;64.72;99109.14;129297;1085;102060;-86
2023/07/26 08:11:52;;;;;;;14.57;7.47;;;;;;;30.14;64.06;99101.75;129462;1085;110342;-86
2023/07/26 08:14:40;;;;;;;22.90;8.83;;;;;;;30.05;63.53;99100.55;128646;1086;101320;-81
2023/07/26 08:17:30;;;;;;;17.60;7.80;;;;;;;30.10;63.35;99104.66;128647;1085;101840;-84
2023/07/26 08:20:17;;;;;;;21.50;8.40;;;;;;;30.14;63.21;99104.46;128214;1086;101838;-87
2023/07/26 08:22:51;;;;;;;16.73;7.37;;;;;;;30.14;62.88;99107.16;128404;1085;104050;-85
2023/07/26 08:25:20;;;;;;;16.70;8.07;;;;;;;30.04;62.95;99105.08;128485;1085;101702;-81
2023/07/26 08:28:03;;;;;;;17.13;8.00;;;;;;;29.96;62.38;99102.03;128537;1085;101963;-84
2023/07/26 08:33:52;;;;;;;21.40;8.30;;;;;;;30.02;61.99;99100.77;127525;1089;102173;-83
2023/07/26 08:36:32;;;;;;;19.07;8.60;;;;;;;30.05;61.97;99090.59;128296;1085;101916;-80
2023/07/26 08:39:05;;;;;;;17.93;8.13;;;;;;;30.20;61.69;99098.63;129055;1085;102093;-83
2023/07/26 08:41:37;;;;;;;17.87;8.27;;;;;;;30.20;61.16;99091.41;127885;1086;104250;-82
2023/07/26 08:44:14;;;;;;;17.17;7.90;;;;;;;30.17;60.62;99094.32;127567;1089;104075;-90
2023/07/26 08:46:48;;;;;;;21.27;8.03;;;;;;;30.21;60.40;99079.59;127637;1089;104142;-82
2023/07/26 08:49:25;;;;;;;17.23;8.10;;;;;;;30.28;60.38;99078.22;128857;1086;101674;-80
2023/07/26 08:51:57;;;;;;;19.87;7.93;;;;;;;30.50;60.31;99078.62;127825;1086;101841;-84
2023/07/26 08:54:29;;;;;;;19.07;7.90;;;;;;;30.65;59.94;99077.52;128366;1085;101625;-79
2023/07/26 08:57:02;;;;;;;18.33;7.90;;;;;;;30.79;59.49;99077.43;127788;1086;104185;-85
2023/07/26 08:59:33;;;;;;;18.50;7.73;;;;;;;30.73;59.00;99080.57;128103;1086;104260;-81
2023/07/26 09:02:04;;;;;;;17.47;7.67;;;;;;;30.65;58.98;99069.39;127713;1089;104034;-84
2023/07/26 09:04:33;;;;;;;19.80;7.80;;;;;;;30.68;58.90;99080.01;127077;1087;104222;-87
2023/07/26 09:07:04;;;;;;;19.50;8.13;;;;;;;30.74;58.72;99076.87;127698;1086;101803;-83
2023/07/26 09:09:35;;;;;;;19.23;8.10;;;;;;;30.76;58.37;99071.34;126741;1086;104236;-84
2023/07/26 09:12:05;;;;;;;20.80;8.43;;;;;;;30.70;58.21;99067.25;126731;1086;102026;-87
2023/07/26 09:14:39;;;;;;;20.07;8.33;;;;;;;30.75;58.19;99066.92;127984;1086;101835;-86
2023/07/26 09:17:08;;;;;;;21.10;8.10;;;;;;;30.92;58.40;99068.44;127616;1086;104120;-84
2023/07/26 09:19:43;;;;;;;15.87;7.77;;;;;;;30.98;58.40;99063.47;127405;1086;104168;-84
2023/07/26 09:22:12;;;;;;;21.80;8.50;;;;;;;31.08;57.92;99060.95;127992;1086;105504;-84
2023/07/26 09:24:50;;;;;;;15.83;8.37;;;;;;;31.16;57.52;99053.12;128773;1086;104261;-84
2023/07/26 09:27:21;;;;;;;21.33;8.40;;;;;;;31.28;57.49;99047.81;128785;1085;101574;-87
2023/07/26 09:29:57;;;;;;;19.77;9.13;;;;;;;31.48;56.98;99041.78;127816;1089;103377;-90
2023/07/26 09:32:43;;;;;;;18.53;9.20;;;;;;;31.63;56.97;99037.07;127813;1086;101883;-86
2023/07/26 09:35:14;;;;;;;17.03;8.17;;;;;;;31.59;56.06;99030.17;127905;1089;102248;-85
2023/07/26 09:37:47;;;;;;;18.73;7.93;;;;;;;31.66;56.20;99026.00;127476;1086;101931;-80
2023/07/26 09:40:40;;;;;;;;;;;;;;;;;;;;;
2023/07/26 09:43:31;;;;;;;20.43;9.07;;;;;;;31.65;56.06;99009.84;127692;1086;104171;-81
2023/07/26 09:46:21;;;;;;;18.20;8.23;;;;;;;31.63;56.25;98998.27;127474;1086;101781;-80
2023/07/26 09:49:02;;;;;;;18.67;8.40;;;;;;;31.61;56.04;99008.37;127516;1086;104235;-78
2023/07/26 09:51:39;;;;;;;21.20;8.73;;;;;;;31.61;55.76;99009.22;127198;1086;101918;-84
2023/07/26 09:54:10;;;;;;;21.27;8.40;;;;;;;31.68;55.61;99007.79;127968;1086;104158;-79
2023/07/26 09:56:40;;;;;;;20.23;8.63;;;;;;;31.74;55.16;99003.73;126610;1087;104283;-81
2023/07/26 09:59:13;;;;;;;19.10;8.20;;;;;;;31.80;55.08;99021.39;127173;1086;104069;-83
2023/07/26 10:01:45;;;;;;;20.47;8.77;;;;;;;31.84;55.06;99001.20;126722;1085;102467;-80
2023/07/26 10:04:29;;;;;;;17.47;7.40;;;;;;;31.87;54.98;98999.11;127273;1086;104139;-82
2023/07/26 10:07:13;;;;;;;21.00;8.13;;;;;;;31.74;54.58;98992.88;127996;1086;101768;-81
2023/07/26 10:09:48;;;;;;;20.13;8.83;;;;;;;31.81;54.54;98987.87;128129;1089;101706;-83
2023/07/26 10:12:25;;;;;;;17.47;7.93;;;;;;;31.95;54.70;98986.81;128393;1085;101896;-83
2023/07/26 10:15:04;;;;;;;16.23;7.97;;;;;;;32.00;54.37;98979.17;127336;1086;101917;-80
2023/07/26 10:17:42;;;;;;;16.93;8.23;;;;;;;32.04;54.56;98972.55;127097;1086;104207;-78
2023/07/26 10:20:21;;;;;;;16.87;8.23;;;;;;;32.18;54.18;98972.35;126969;1086;104192;-82
2023/07/26 10:23:07;;;;;;;19.90;8.33;;;;;;;32.13;54.45;98963.69;127289;1086;101752;-78
2023/07/26 10:25:44;;;;;;;19.10;8.50;;;;;;;32.15;54.25;98966.28;126613;1086;104194;-80
2023/07/26 10:28:24;;;;;;;17.47;8.57;;;;;;;32.12;54.03;98956.55;128067;1086;103102;-78
2023/07/26 10:31:02;;;;;;;18.70;8.10;;;;;;;32.20;54.13;98959.52;126506;1086;104162;-79
2023/07/26 10:33:51;;;;;;;20.77;9.40;;;;;;;32.28;53.83;98949.92;127235;1086;101781;-76
2023/07/26 10:36:31;;;;;;;21.40;8.13;;;;;;;32.31;53.47;98938.82;128110;1085;110828;-79
2023/07/26 10:39:09;;;;;;;22.20;7.90;;;;;;;32.42;53.42;98925.25;127787;1086;104143;-77
2023/07/26 10:41:50;;;;;;;18.17;8.83;;;;;;;32.48;53.42;98934.77;126681;1086;101838;-76
2023/07/26 10:44:21;;;;;;;19.10;7.90;;;;;;;32.51;53.28;98935.38;127157;1085;104224;-80
2023/07/26 10:47:01;;;;;;;15.73;7.50;;;;;;;32.60;53.32;98936.49;126290;1086;104168;-75
2023/07/26 10:49:52;;;;;;;16.63;7.73;;;;;;;32.57;52.26;98940.31;127840;1085;101892;-81
2023/07/26 10:55:24;;;;;;;20.93;8.23;;;;;;;32.65;52.46;98920.72;126738;1086;104685;-79
2023/07/26 10:57:58;;;;;;;17.77;8.07;;;;;;;32.81;52.34;98905.89;127934;1085;104328;-78
2023/07/26 11:01:02;;;;;;;;;;;;;;;;;;;;;
2023/07/26 11:03:44;;;;;;;18.80;7.43;;;;;;;32.90;51.83;98894.27;128166;1085;101838;-80
2023/07/26 11:06:20;;;;;;;23.50;8.43;;;;;;;32.99;52.03;98882.64;126918;1086;104174;-82
2023/07/26 11:08:52;;;;;;;18.20;8.30;;;;;;;32.94;51.21;98877.59;127414;1086;104149;-81
2023/07/26 11:12:04;;;;;;;16.90;8.03;;;;;;;32.96;51.07;98875.59;127252;1086;101928;-81
2023/07/26 11:14:41;;;;;;;18.80;8.53;;;;;;;33.05;51.04;98878.52;128541;1086;101996;-82
2023/07/26 11:17:17;;;;;;;21.80;8.57;;;;;;;33.14;51.08;98880.47;127406;1086;101797;-88
2023/07/26 11:19:53;;;;;;;19.73;8.70;;;;;;;33.17;50.92;98877.50;127515;1086;101938;-79
2023/07/26 11:22:23;;;;;;;17.27;7.67;;;;;;;33.21;50.61;98870.86;127818;1085;104254;-82
2023/07/26 11:25:09;;;;;;;18.10;7.67;;;;;;;33.35;50.48;98871.52;127054;1086;102102;-78
2023/07/26 11:28:01;;;;;;;18.37;7.60;;;;;;;33.46;50.25;98871.49;128678;1085;101751;-84
2023/07/26 11:34:53;;;;;;;23.53;7.53;;;;;;;33.78;49.38;98865.16;127939;1089;102261;-88
2023/07/26 11:37:24;;;;;;;17.47;7.57;;;;;;;33.85;49.08;98855.47;127068;1089;102158;-80
2023/07/26 11:40:05;;;;;;;22.70;8.27;;;;;;;33.88;48.47;98863.37;127431;1089;102229;-81
2023/07/26 11:42:42;;;;;;;18.63;8.57;;;;;;;33.92;48.50;98855.78;126630;1089;104746;-79
2023/07/26 11:45:19;;;;;;;17.50;7.57;;;;;;;33.98;48.34;98850.66;126555;1089;104248;-83
2023/07/26 11:47:55;;;;;;;22.17;7.67;;;;;;;33.99;48.18;98849.67;127508;1089;101799;-81
2023/07/26 11:50:25;;;;;;;15.60;7.50;;;;;;;34.03;47.88;98842.97;128028;1085;102933;-85
2023/07/26 11:53:20;;;;;;;16.93;7.37;;;;;;;34.14;48.13;98835.70;127255;1086;104264;-82
2023/07/26 11:56:00;;;;;;;19.13;7.50;;;;;;;34.20;47.64;98837.88;128311;1085;104162;-83
2023/07/26 12:01:34;;;;;;;14.83;7.57;;;;;;;34.47;46.95;98820.97;127451;1086;104203;-82